Capitol Reef Natl Park, Utah
Current Conditions -  °F | °C
As of 5:53 AM on Friday 19 Dec 2014 (Local Time) from KBCE Reporting Station
Clear Clear  
Wind Chill:   Ceiling: Unl
Heat Index:   Visibility: 10mi
Dew Point:   Wind: 0mph
Humidity: 84%   Direction: NA
Pressure: 30.21"   Gusts: NA
Location:  38.24°N, 111.26°W
Report Text: KBCE 191253Z AUTO 00000KT 10SM CLR M14/M16 A3021 RMK AO2 SLP257 T11391161
Loading
Personal Weather Stations






























Interactive Weather Map New forecast layout! Learn more

10-Day Weather Forecast

Advertisements
Track Severe Weather on mobile